createdAt,value
2022-12-08T00:02:58.266Z,93.90
2022-12-08T00:06:22.217Z,93.98
2022-12-08T00:09:40.846Z,93.90
2022-12-08T00:12:45.630Z,93.80
2022-12-08T00:15:49.252Z,94.26
2022-12-08T00:18:52.663Z,94.41
2022-12-08T00:21:56.330Z,94.40
2022-12-08T00:24:59.600Z,94.62
2022-12-08T00:28:02.621Z,94.06
2022-12-08T00:31:11.277Z,94.32
2022-12-08T00:34:15.561Z,94.21
2022-12-08T00:37:18.790Z,94.00
2022-12-08T00:40:21.740Z,94.17
2022-12-08T00:43:24.910Z,93.91
2022-12-08T00:46:27.962Z,93.90
2022-12-08T00:49:31.372Z,93.81
2022-12-08T00:52:34.353Z,93.72
2022-12-08T00:55:38.546Z,94.16
2022-12-08T00:58:41.633Z,94.58
2022-12-08T01:01:46.215Z,94.53
2022-12-08T01:04:51.070Z,94.66
2022-12-08T01:07:54.360Z,94.39
2022-12-08T01:10:57.508Z,94.64
2022-12-08T01:14:00.873Z,94.51
2022-12-08T01:17:05.023Z,94.73
2022-12-08T01:20:09.000Z,94.44
2022-12-08T01:23:11.891Z,94.35
2022-12-08T01:26:16.854Z,94.47
2022-12-08T01:29:19.868Z,94.44
2022-12-08T01:32:23.152Z,94.33
2022-12-08T01:35:26.221Z,94.90
2022-12-08T01:38:29.573Z,95.07
2022-12-08T01:41:34.381Z,94.89
2022-12-08T01:44:37.683Z,94.61
2022-12-08T01:47:43.610Z,94.24
2022-12-08T01:50:48.375Z,94.15
2022-12-08T01:53:51.883Z,93.57
2022-12-08T01:57:05.860Z,93.70
2022-12-08T02:00:12.697Z,94.24
2022-12-08T02:03:30.174Z,94.57
2022-12-08T02:06:38.186Z,95.19
2022-12-08T02:09:42.269Z,95.29
2022-12-08T02:12:45.359Z,95.11
2022-12-08T02:15:58.774Z,94.69
2022-12-08T02:19:31.375Z,95.02
2022-12-08T02:22:56.443Z,94.60
2022-12-08T02:26:11.967Z,94.23
2022-12-08T02:29:36.683Z,94.02
2022-12-08T02:32:48.816Z,93.71
2022-12-08T02:36:02.420Z,93.74
2022-12-08T02:39:40.164Z,93.82
2022-12-08T02:42:46.803Z,93.97
2022-12-08T02:45:54.346Z,93.59
2022-12-08T02:48:58.295Z,93.11
2022-12-08T02:52:10.712Z,92.51
2022-12-08T02:55:25.003Z,92.28
2022-12-08T02:58:46.518Z,92.45
2022-12-08T03:02:20.864Z,92.39
2022-12-08T03:06:01.449Z,92.64
2022-12-08T03:09:13.674Z,92.75
2022-12-08T03:12:37.614Z,92.08
2022-12-08T03:15:42.297Z,91.11
2022-12-08T03:18:58.794Z,90.95
2022-12-08T03:22:04.877Z,90.94
2022-12-08T03:25:10.060Z,91.22
2022-12-08T03:28:13.418Z,91.23
2022-12-08T03:31:19.061Z,91.20
2022-12-08T03:34:26.977Z,91.34
2022-12-08T03:37:30.306Z,91.71
2022-12-08T03:40:34.615Z,91.84
2022-12-08T03:43:37.555Z,91.71
2022-12-08T03:46:40.862Z,91.17
2022-12-08T03:49:44.055Z,90.27
2022-12-08T03:52:47.536Z,88.51
2022-12-08T03:55:50.681Z,88.77
2022-12-08T03:58:55.065Z,90.36
2022-12-08T04:01:58.115Z,91.44
2022-12-08T04:05:01.382Z,91.81
2022-12-08T04:08:04.698Z,91.08
2022-12-08T04:11:08.358Z,90.59
2022-12-08T04:14:11.535Z,91.02
2022-12-08T04:17:15.193Z,91.80
2022-12-08T04:20:18.136Z,91.92
2022-12-08T04:23:22.358Z,91.49
2022-12-08T04:26:25.294Z,90.00
2022-12-08T04:29:29.422Z,88.99
2022-12-08T04:32:32.496Z,88.56
2022-12-08T04:35:36.061Z,88.47
2022-12-08T04:38:39.242Z,88.11
2022-12-08T04:41:42.827Z,87.72
2022-12-08T04:44:45.732Z,87.17
2022-12-08T04:47:48.962Z,87.07
2022-12-08T04:50:51.692Z,86.97
2022-12-08T04:53:54.657Z,87.18
2022-12-08T04:56:57.399Z,87.55
2022-12-08T05:00:00.603Z,87.71
2022-12-08T05:03:04.363Z,87.65
2022-12-08T05:06:07.777Z,87.76
2022-12-08T05:09:11.122Z,87.82
2022-12-08T05:12:14.547Z,87.66
2022-12-08T05:15:17.592Z,87.39
2022-12-08T05:18:21.168Z,86.59
2022-12-08T05:21:24.206Z,87.04
2022-12-08T05:24:27.446Z,86.25
2022-12-08T05:27:30.412Z,86.33
2022-12-08T05:30:33.529Z,86.39
2022-12-08T05:33:36.463Z,86.78
2022-12-08T05:36:39.768Z,87.44
2022-12-08T05:39:42.732Z,87.36
2022-12-08T05:42:47.046Z,87.62
2022-12-08T05:45:50.193Z,87.76
2022-12-08T05:48:53.468Z,87.70
2022-12-08T05:51:56.394Z,87.60
2022-12-08T05:55:00.014Z,88.32
2022-12-08T05:58:07.661Z,88.66
2022-12-08T06:01:37.853Z,88.80
2022-12-08T06:04:41.290Z,88.41
2022-12-08T06:07:44.746Z,87.46
2022-12-08T06:10:48.717Z,87.06
2022-12-08T06:13:52.181Z,85.71
2022-12-08T06:16:55.508Z,85.84
2022-12-08T06:19:59.584Z,86.27
2022-12-08T06:23:04.213Z,87.52
2022-12-08T06:26:13.400Z,87.93
2022-12-08T06:29:16.811Z,88.62
2022-12-08T06:32:27.124Z,89.01
2022-12-08T06:35:30.762Z,89.98
2022-12-08T06:38:35.665Z,90.38
2022-12-08T06:42:00.247Z,87.47
2022-12-08T06:45:03.559Z,88.04
2022-12-08T06:48:07.067Z,88.61
2022-12-08T06:51:17.958Z,89.33
2022-12-08T06:54:21.217Z,89.00
2022-12-08T06:57:24.728Z,89.22
2022-12-08T07:00:29.179Z,89.94
2022-12-08T07:03:32.377Z,90.21
2022-12-08T07:06:37.276Z,89.50
2022-12-08T07:09:40.451Z,89.60
2022-12-08T07:12:43.824Z,89.53
2022-12-08T07:15:46.857Z,88.46
2022-12-08T07:18:50.382Z,88.54
2022-12-08T07:21:53.410Z,88.49
2022-12-08T07:24:57.065Z,88.67
2022-12-08T07:28:00.147Z,88.22
2022-12-08T07:31:05.216Z,88.93
2022-12-08T07:34:11.507Z,89.47
2022-12-08T07:37:15.314Z,90.41
2022-12-08T07:40:18.490Z,90.61
2022-12-08T07:43:22.564Z,89.29
2022-12-08T07:46:26.629Z,89.28
2022-12-08T07:49:30.776Z,88.89
2022-12-08T07:52:35.388Z,87.81
2022-12-08T07:55:42.850Z,87.97
2022-12-08T07:58:47.108Z,88.46
2022-12-08T08:02:06.542Z,88.89
2022-12-08T08:05:15.244Z,87.79
2022-12-08T08:08:18.551Z,87.87
2022-12-08T08:11:22.302Z,87.26
2022-12-08T08:14:26.509Z,86.39
2022-12-08T08:17:30.294Z,86.41
2022-12-08T08:20:33.561Z,86.66
2022-12-08T08:23:36.829Z,86.67
2022-12-08T08:26:40.210Z,87.70
2022-12-08T08:29:43.560Z,87.57
2022-12-08T08:32:47.398Z,86.26
2022-12-08T08:35:50.656Z,85.86
2022-12-08T08:38:53.610Z,84.65
2022-12-08T08:41:56.839Z,82.97
2022-12-08T08:44:59.822Z,83.36
2022-12-08T08:48:03.325Z,84.18
2022-12-08T08:51:11.458Z,84.95
2022-12-08T08:54:14.724Z,84.77
2022-12-08T08:57:23.632Z,83.46
2022-12-08T09:00:28.787Z,82.16
2022-12-08T09:03:31.838Z,82.61
2022-12-08T09:06:35.913Z,81.85
2022-12-08T09:09:39.607Z,81.82
2022-12-08T09:12:43.009Z,82.28
2022-12-08T09:15:46.428Z,82.06
2022-12-08T09:18:51.713Z,82.50
2022-12-08T09:21:55.309Z,83.42
2022-12-08T09:24:58.728Z,82.98
2022-12-08T09:28:04.173Z,83.50
2022-12-08T09:31:08.131Z,83.39
2022-12-08T09:34:12.458Z,82.94
2022-12-08T09:37:15.723Z,82.67
2022-12-08T09:40:21.225Z,83.31
2022-12-08T09:43:39.810Z,83.88
2022-12-08T09:46:44.849Z,81.96
2022-12-08T09:49:50.085Z,80.47
2022-12-08T09:53:18.183Z,80.34
2022-12-08T09:56:30.123Z,80.26
2022-12-08T09:59:35.392Z,79.22
2022-12-08T10:02:40.069Z,80.87
2022-12-08T10:05:56.650Z,79.86
2022-12-08T10:09:21.166Z,78.51
2022-12-08T10:12:56.444Z,79.29
2022-12-08T10:16:36.448Z,80.58
2022-12-08T10:19:44.310Z,81.99
2022-12-08T10:22:52.409Z,82.53
2022-12-08T10:26:04.424Z,81.21
2022-12-08T10:29:12.187Z,81.52
2022-12-08T10:32:21.735Z,80.43
2022-12-08T10:35:25.652Z,80.02
2022-12-08T10:38:34.306Z,80.51
2022-12-08T10:41:37.213Z,80.21
2022-12-08T10:44:53.933Z,79.75
2022-12-08T10:48:02.783Z,79.60
2022-12-08T10:51:25.745Z,78.83
2022-12-08T10:54:33.681Z,78.17
2022-12-08T10:57:38.971Z,77.15
2022-12-08T11:00:42.039Z,77.17
2022-12-08T11:03:56.026Z,76.79
2022-12-08T11:06:59.474Z,76.40
2022-12-08T11:10:03.298Z,76.32
2022-12-08T11:13:07.731Z,74.77
2022-12-08T11:16:18.278Z,73.26
2022-12-08T11:19:22.816Z,74.87
2022-12-08T11:22:30.667Z,75.58
2022-12-08T11:25:34.167Z,74.95
2022-12-08T11:28:37.678Z,75.51
2022-12-08T11:31:57.502Z,74.82
2022-12-08T11:35:05.354Z,73.62
2022-12-08T11:38:21.559Z,72.25
2022-12-08T11:41:32.824Z,72.02
2022-12-08T11:44:45.261Z,70.72
2022-12-08T11:47:56.474Z,70.13
2022-12-08T11:51:13.804Z,70.47
2022-12-08T11:54:49.423Z,70.77
2022-12-08T11:57:52.360Z,72.01
2022-12-08T12:00:55.588Z,71.98
2022-12-08T12:04:21.978Z,72.47
2022-12-08T12:07:54.305Z,71.81
2022-12-08T12:11:09.588Z,72.39
2022-12-08T12:14:39.939Z,72.54
2022-12-08T12:18:01.082Z,72.87
2022-12-08T12:21:18.562Z,72.59
2022-12-08T12:24:32.812Z,73.74
2022-12-08T12:27:40.189Z,74.30
2022-12-08T12:31:03.419Z,75.25
2022-12-08T12:34:12.279Z,75.39
2022-12-08T12:37:19.369Z,76.25
2022-12-08T12:40:25.009Z,76.83
2022-12-08T12:43:34.053Z,76.91
2022-12-08T12:46:46.891Z,77.63
2022-12-08T12:49:52.009Z,77.09
2022-12-08T12:52:55.048Z,76.51
2022-12-08T12:56:03.721Z,76.69
2022-12-08T12:59:36.364Z,76.44
2022-12-08T13:02:50.026Z,76.06
2022-12-08T13:05:53.780Z,75.95
2022-12-08T13:08:57.517Z,76.04
2022-12-08T13:12:09.349Z,75.65
2022-12-08T13:15:20.343Z,76.13
2022-12-08T13:18:36.549Z,75.80
2022-12-08T13:21:40.218Z,76.09
2022-12-08T13:24:44.001Z,77.22
2022-12-08T13:27:54.536Z,77.11
2022-12-08T13:31:02.760Z,76.70
2022-12-08T13:34:08.602Z,76.10
2022-12-08T13:37:11.566Z,74.87
2022-12-08T13:40:19.594Z,74.55
2022-12-08T13:43:45.045Z,75.30
2022-12-08T13:47:25.073Z,75.53
2022-12-08T13:55:06.871Z,73.79
2022-12-08T13:57:34.273Z,72.46
2022-12-08T14:00:37.604Z,70.65
2022-12-08T14:07:19.989Z,71.68
2022-12-08T14:10:26.893Z,70.61
2022-12-08T14:13:31.548Z,70.68
2022-12-08T14:16:40.314Z,70.87
2022-12-08T14:19:45.309Z,71.05
2022-12-08T14:22:49.088Z,71.60
2022-12-08T14:25:52.814Z,71.51
2022-12-08T14:28:56.383Z,72.66
2022-12-08T14:31:59.521Z,73.18
2022-12-08T14:35:08.988Z,73.73
2022-12-08T14:38:15.108Z,73.25
2022-12-08T14:41:25.882Z,74.93
2022-12-08T14:47:35.140Z,76.68
2022-12-08T14:50:39.702Z,77.53
2022-12-08T14:53:55.122Z,77.29
2022-12-08T14:56:58.352Z,77.41
2022-12-08T15:00:08.624Z,77.50
2022-12-08T15:03:12.855Z,76.85
2022-12-08T15:06:16.272Z,75.92
2022-12-08T15:09:41.112Z,76.80
2022-12-08T15:13:05.772Z,76.04
2022-12-08T15:16:39.027Z,75.42
2022-12-08T15:19:42.449Z,75.83
2022-12-08T15:22:45.667Z,76.58
2022-12-08T15:25:49.590Z,75.75
2022-12-08T15:28:53.758Z,74.75
2022-12-08T15:31:59.879Z,74.50
2022-12-08T15:35:03.074Z,75.11
2022-12-08T15:38:07.246Z,75.65
2022-12-08T15:41:14.559Z,76.01
2022-12-08T15:44:18.615Z,75.47
2022-12-08T15:47:23.862Z,75.12
2022-12-08T15:50:28.534Z,75.09
2022-12-08T15:53:31.618Z,75.29
2022-12-08T15:56:45.278Z,75.45
2022-12-08T15:59:59.369Z,74.85
2022-12-08T16:03:59.308Z,74.58
2022-12-08T16:09:51.621Z,74.83
2022-12-08T16:13:55.662Z,75.53
2022-12-08T16:16:37.116Z,76.52
2022-12-08T16:19:40.915Z,75.97
2022-12-08T16:22:56.412Z,76.10
2022-12-08T16:26:23.883Z,75.45
2022-12-08T16:29:30.121Z,75.19
2022-12-08T16:32:33.698Z,75.38
2022-12-08T16:35:36.980Z,75.76
2022-12-08T16:38:40.892Z,74.93
2022-12-08T16:42:02.554Z,72.24
2022-12-08T16:45:26.606Z,71.85
2022-12-08T16:48:30.508Z,72.14
2022-12-08T16:51:34.887Z,72.27
2022-12-08T16:54:44.253Z,72.51
2022-12-08T16:57:49.642Z,73.05
2022-12-08T17:00:54.414Z,72.57
2022-12-08T17:04:29.681Z,72.46
2022-12-08T17:07:25.566Z,72.61
2022-12-08T17:10:32.024Z,72.94
2022-12-08T17:13:41.590Z,73.81
2022-12-08T17:16:45.480Z,74.03
2022-12-08T17:19:48.891Z,74.73
2022-12-08T17:22:58.844Z,76.55
2022-12-08T17:26:02.474Z,77.48
2022-12-08T17:29:08.600Z,78.39
2022-12-08T17:32:15.006Z,79.75
2022-12-08T17:35:20.185Z,80.50
2022-12-08T17:38:27.707Z,80.95
2022-12-08T17:41:41.866Z,81.58
2022-12-08T17:44:46.935Z,82.03
2022-12-08T17:47:50.714Z,82.20
2022-12-08T17:51:02.707Z,82.67
2022-12-08T17:54:10.710Z,83.80
2022-12-08T17:57:14.263Z,84.13
2022-12-08T18:00:23.520Z,84.82
2022-12-08T18:03:29.122Z,85.12
2022-12-08T18:06:33.105Z,85.17
2022-12-08T18:09:37.063Z,85.43
2022-12-08T18:12:40.954Z,85.50
2022-12-08T18:15:47.767Z,86.21
2022-12-08T18:18:51.792Z,86.39
2022-12-08T18:21:59.759Z,86.53
2022-12-08T18:25:03.361Z,86.72
2022-12-08T18:28:07.496Z,87.18
2022-12-08T18:31:14.210Z,86.96
2022-12-08T18:34:19.644Z,87.01
2022-12-08T18:37:25.951Z,86.49
2022-12-08T18:40:35.001Z,86.54
2022-12-08T18:43:40.953Z,86.39
2022-12-08T18:46:46.307Z,84.72
2022-12-08T18:49:52.884Z,83.52
2022-12-08T18:52:57.371Z,83.88
2022-12-08T18:56:01.574Z,83.25
2022-12-08T18:59:11.783Z,83.31
2022-12-08T19:02:19.377Z,83.40
2022-12-08T19:05:34.125Z,82.75
2022-12-08T19:08:38.746Z,82.52
2022-12-08T19:11:57.803Z,81.29
2022-12-08T19:15:07.964Z,81.63
2022-12-08T19:18:19.708Z,82.13
2022-12-08T19:21:43.032Z,81.08
2022-12-08T19:25:00.027Z,81.19
2022-12-08T19:28:05.951Z,80.81
2022-12-08T19:31:13.276Z,80.01
2022-12-08T19:34:25.839Z,80.97
2022-12-08T19:37:40.329Z,80.20
2022-12-08T19:41:25.451Z,80.61
2022-12-08T19:44:54.659Z,80.41
2022-12-08T19:48:01.741Z,79.35
2022-12-08T19:51:13.882Z,78.77
2022-12-08T19:54:45.127Z,79.54
2022-12-08T19:58:25.366Z,78.64
2022-12-08T20:01:41.521Z,78.54
2022-12-08T20:04:50.075Z,79.05
2022-12-08T20:07:56.865Z,78.82
2022-12-08T20:11:17.406Z,78.49
2022-12-08T20:14:41.441Z,78.90
2022-12-08T20:17:58.231Z,78.59
2022-12-08T20:21:29.515Z,78.26
2022-12-08T20:24:54.344Z,78.84
2022-12-08T20:28:20.644Z,79.13
2022-12-08T20:31:46.398Z,79.33
2022-12-08T20:35:01.764Z,79.37
2022-12-08T20:38:07.845Z,78.34
2022-12-08T20:41:13.066Z,78.98
2022-12-08T20:44:22.634Z,78.32
2022-12-08T20:47:39.631Z,78.13
2022-12-08T20:50:46.685Z,77.41
2022-12-08T20:53:59.845Z,77.08
2022-12-08T20:57:09.125Z,77.69
2022-12-08T21:00:15.065Z,77.33
2022-12-08T21:03:42.307Z,77.69
2022-12-08T21:06:43.992Z,77.22
2022-12-08T21:10:08.828Z,77.44
2022-12-08T21:13:14.809Z,77.75
2022-12-08T21:16:22.089Z,77.84
2022-12-08T21:19:37.994Z,77.97
2022-12-08T21:22:44.991Z,78.98
2022-12-08T21:25:51.475Z,78.14
2022-12-08T21:28:55.096Z,77.41
2022-12-08T21:32:00.457Z,77.46
2022-12-08T21:35:03.999Z,77.42
2022-12-08T21:38:16.539Z,78.43
2022-12-08T21:41:40.882Z,78.45
2022-12-08T21:44:49.909Z,78.86
2022-12-08T21:47:53.441Z,79.12
2022-12-08T21:50:57.861Z,79.05
2022-12-08T21:54:02.667Z,78.61
2022-12-08T21:57:08.664Z,78.11
2022-12-08T22:00:17.835Z,78.12
2022-12-08T22:03:26.521Z,78.61
2022-12-08T22:06:30.757Z,78.78
2022-12-08T22:09:37.284Z,79.27
2022-12-08T22:12:46.708Z,79.74
2022-12-08T22:16:01.121Z,80.16
2022-12-08T22:19:04.399Z,79.83
2022-12-08T22:22:08.345Z,80.21
2022-12-08T22:25:12.679Z,80.33
2022-12-08T22:28:19.328Z,81.35
2022-12-08T22:31:25.044Z,81.02
2022-12-08T22:34:32.315Z,81.67
2022-12-08T22:37:35.800Z,82.12
2022-12-08T22:40:44.301Z,81.63
2022-12-08T22:43:50.806Z,81.37
2022-12-08T22:46:56.757Z,81.49
2022-12-08T22:50:49.192Z,80.25
2022-12-08T22:53:53.010Z,81.23
2022-12-08T22:57:01.919Z,81.58
2022-12-08T23:00:07.489Z,81.38
2022-12-08T23:03:15.704Z,82.00
2022-12-08T23:06:21.938Z,82.13
2022-12-08T23:09:28.505Z,82.06
2022-12-08T23:12:33.741Z,82.24
2022-12-08T23:15:38.534Z,82.27
2022-12-08T23:18:46.330Z,82.44
2022-12-08T23:21:49.768Z,83.36
2022-12-08T23:24:53.591Z,82.52
2022-12-08T23:27:57.958Z,82.52
2022-12-08T23:31:01.403Z,83.45
2022-12-08T23:34:05.080Z,82.83
2022-12-08T23:37:15.534Z,82.44
2022-12-08T23:40:19.885Z,83.14
2022-12-08T23:43:26.239Z,83.01
2022-12-08T23:46:29.554Z,82.58
2022-12-08T23:49:33.621Z,81.94
2022-12-08T23:52:40.698Z,81.97
2022-12-08T23:55:44.859Z,82.95
2022-12-08T23:58:49.689Z,83.10
